Time;durP1;ratioP1;P1;durP2;ratioP2;P2;SDS_P1;SDS_P2;PMS_P1;PMS_P2;Temp;Humidity;BMP_temperature;BMP_pressure;BME280_temperature;BME280_humidity;BME280_pressure;Samples;Min_cycle;Max_cycle;Signal;HPM_P1;HPM_P2
2023/06/04 00:02:19;;;;;;;;;;;;;;;15.37;59.50;100186.66;4485359;31;33716;-81
2023/06/04 00:04:47;;;;;;;;;;;;;;;15.65;58.02;100194.53;4488262;31;34585;-77
2023/06/04 00:07:14;;;;;;;;;;;;;;;15.31;58.52;100189.97;4494261;31;34925;-79
2023/06/04 00:09:42;;;;;;;;;;;;;;;14.74;59.97;100194.22;4490853;31;33733;-79
2023/06/04 00:12:09;;;;;;;;;;;;;;;14.72;60.69;100193.28;4492302;31;33132;-80
2023/06/04 00:14:37;;;;;;;;;;;;;;;14.89;60.73;100203.37;4486385;31;34501;-79
2023/06/04 00:17:04;;;;;;;;;;;;;;;15.51;58.76;100193.19;4486719;31;34173;-80
2023/06/04 00:19:33;;;;;;;;;;;;;;;16.97;54.22;100191.25;4487700;31;34261;-80
2023/06/04 00:22:01;;;;;;;;;;;;;;;17.49;52.62;100198.62;4489473;31;33754;-80
2023/06/04 00:24:28;;;;;;;;;;;;;;;18.02;51.34;100187.59;4478183;31;34239;-81
2023/06/04 00:26:55;;;;;;;;;;;;;;;17.97;51.57;100180.47;4494338;31;34401;-80
2023/06/04 00:29:23;;;;;;;;;;;;;;;18.14;51.55;100179.09;4485761;31;33929;-81
2023/06/04 00:31:50;;;;;;;;;;;;;;;19.08;48.63;100177.31;4484988;31;33405;-79
2023/06/04 00:34:18;;;;;;;;;;;;;;;19.44;47.84;100177.88;4486970;31;34198;-80
2023/06/04 00:36:45;;;;;;;;;;;;;;;19.05;48.54;100173.78;4486634;31;34031;-81
2023/06/04 00:39:13;;;;;;;;;;;;;;;19.42;47.70;100174.34;4488886;31;34970;-80
2023/06/04 00:41:40;;;;;;;;;;;;;;;18.17;49.09;100176.50;4490425;31;33510;-79
2023/06/04 00:44:07;;;;;;;;;;;;;;;17.74;50.69;100188.69;4489475;31;34202;-80
2023/06/04 00:46:35;;;;;;;;;;;;;;;16.50;53.98;100178.69;4486142;31;33873;-79
2023/06/04 00:49:04;;;;;;;;;;;;;;;15.46;57.99;100187.84;4487022;31;34823;-81
2023/06/04 00:51:31;;;;;;;;;;;;;;;14.58;60.24;100184.06;4489050;31;33110;-79
2023/06/04 00:53:59;;;;;;;;;;;;;;;14.58;61.25;100191.00;4486845;31;33938;-80
2023/06/04 00:56:26;;;;;;;;;;;;;;;14.23;63.06;100190.59;4483974;31;34069;-80
2023/06/04 00:58:54;;;;;;;;;;;;;;;14.36;62.53;100190.22;4487859;31;33866;-80
2023/06/04 01:01:27;;;;;;;;;;;;;;;14.77;61.26;100184.72;4485715;31;33628;-79
2023/06/04 01:03:58;;;;;;;;;;;;;;;14.91;59.95;100181.75;4485941;31;33656;-80
2023/06/04 01:06:36;;;;;;;;;;;;;;;14.55;60.79;100182.22;4469363;31;33643;-80
2023/06/04 01:09:05;;;;;;;;;;;;;;;15.24;59.39;100180.16;4477549;31;33951;-79
2023/06/04 01:11:34;;;;;;;;;;;;;;;16.01;56.07;100179.91;4486089;31;32897;-80
2023/06/04 01:14:05;;;;;;;;;;;;;;;15.63;57.40;100169.22;4494037;31;34084;-79
2023/06/04 01:16:36;;;;;;;;;;;;;;;15.29;57.89;100168.16;4491988;31;34016;-79
2023/06/04 01:19:03;;;;;;;;;;;;;;;15.49;57.55;100180.13;4466445;31;33275;-80
2023/06/04 01:21:30;;;;;;;;;;;;;;;16.73;54.44;100181.00;4474429;31;32605;-80
2023/06/04 01:24:00;;;;;;;3.00;1.50;;;;;;;17.58;53.57;100186.59;4482998;31;35033;-80
2023/06/04 01:26:30;;;;;;;4.32;1.60;;;;;;;19.42;48.32;100174.34;4475114;31;33974;-80
2023/06/04 01:28:58;;;;;;;3.37;1.27;;;;;;;19.94;46.16;100170.72;4486309;31;34039;-80
2023/06/04 01:31:26;;;;;;;4.37;1.60;;;;;;;19.61;46.98;100179.87;4491709;31;33305;-81
2023/06/04 01:33:55;;;;;;;;;;;;;;;18.82;48.38;100185.63;4480820;31;33910;-79
2023/06/04 01:36:23;;;;;;;;;;;;;;;16.94;52.76;100184.22;4490328;31;34080;-80
2023/06/04 01:38:51;;;;;;;;;;;;;;;15.22;58.40;100187.06;4488679;31;34031;-80
2023/06/04 01:41:18;;;;;;;;;;;;;;;15.13;58.45;100193.75;4488662;31;33693;-80
2023/06/04 01:43:45;;;;;;;;;;;;;;;15.25;57.66;100189.78;4475117;31;33552;-80
2023/06/04 01:46:13;;;;;;;;;;;;;;;14.88;58.32;100191.19;4488052;31;34160;-79
2023/06/04 01:48:40;;;;;;;;;;;;;;;15.36;57.02;100188.41;4488624;31;34724;-79
2023/06/04 01:51:08;;;;;;;;;;;;;;;16.89;51.98;100177.97;4491301;31;33793;-80
2023/06/04 01:53:36;;;;;;;;;;;;;;;17.04;51.60;100183.59;4477063;31;34116;-80
2023/06/04 01:56:03;;;;;;;;;;;;;;;17.52;50.95;100182.09;4493186;31;34068;-81
2023/06/04 01:58:31;;;;;;;;;;;;;;;18.89;48.65;100177.03;4496780;31;34464;-81
2023/06/04 02:01:02;;;;;;;;;;;;;;;18.16;50.46;100177.38;4488173;31;34204;-80
2023/06/04 02:03:36;;;;;;;;;;;;;;;18.71;48.89;100180.16;4486943;31;33756;-79
2023/06/04 02:06:07;;;;;;;;;;;;;;;18.86;48.54;100182.19;4488624;31;34932;-81
2023/06/04 02:08:35;;;;;;;;;;;;;;;18.91;48.30;100180.56;4473830;31;33995;-80
2023/06/04 02:11:03;;;;;;;;;;;;;;;19.44;46.86;100182.25;4489495;31;33837;-81
2023/06/04 02:13:30;;;;;;;;;;;;;;;19.86;45.50;100180.22;4499183;31;34973;-80
2023/06/04 02:15:57;;;;;;;;;;;;;;;19.67;45.13;100193.09;4494247;31;34715;-80
2023/06/04 02:18:25;;;;;;;;;;;;;;;20.34;43.07;100181.69;4494132;31;34213;-80
2023/06/04 02:20:52;;;;;;;;;;;;;;;19.60;43.78;100193.84;4486975;31;33465;-81
2023/06/04 02:23:20;;;;;;;;;;;;;;;19.49;44.34;100191.09;4487543;31;34864;-80
2023/06/04 02:25:49;;;;;;;;;;;;;;;19.27;45.37;100184.62;4490170;31;34170;-80
2023/06/04 02:28:16;;;;;;;;;;;;;;;19.23;46.14;100186.31;4485299;31;33067;-80
2023/06/04 02:30:45;;;;;;;;;;;;;;;19.47;45.93;100182.31;4491098;31;33387;-80
2023/06/04 02:33:12;;;;;;;;;;;;;;;19.10;46.77;100192.22;4486225;31;35018;-80
2023/06/04 02:35:40;;;;;;;;;;;;;;;18.54;48.79;100192.94;4485882;31;34365;-81
2023/06/04 02:38:08;;;;;;;;;;;;;;;18.68;48.97;100193.22;4488811;31;34760;-80
2023/06/04 02:40:35;;;;;;;;;;;;;;;17.78;51.03;100193.16;4475447;31;32396;-80
2023/06/04 02:43:03;;;;;;;;;;;;;;;16.04;55.69;100193.09;4488374;31;34668;-81
2023/06/04 02:45:30;;;;;;;;;;;;;;;15.49;57.83;100193.16;4485706;31;33938;-81
2023/06/04 02:47:57;;;;;;;;;;;;;;;15.52;58.17;100193.25;4483172;31;33792;-80
2023/06/04 02:50:25;;;;;;;;;;;;;;;15.28;58.27;100187.28;4486589;31;33297;-80
2023/06/04 02:52:52;;;;;;;;;;;;;;;14.88;60.22;100191.19;4490381;31;34184;-80
2023/06/04 02:55:22;;;;;;;;;;;;;;;14.22;63.28;100192.34;4488081;31;33694;-80
2023/06/04 02:57:51;;;;;;;;;;;;;;;14.13;64.40;100202.41;4494548;31;34445;-80
2023/06/04 03:00:19;;;;;;;;;;;;;;;13.75;64.43;100197.56;4495810;31;33225;-80
2023/06/04 03:02:47;;;;;;;;;;;;;;;13.90;63.50;100202.44;4480652;32;34182;-83
2023/06/04 03:05:17;;;;;;;;;;;;;;;15.48;57.56;100191.38;4485247;31;34140;-83
2023/06/04 03:07:45;;;;;;;;;;;;;;;16.77;54.02;100191.59;4471313;32;33558;-83
2023/06/04 03:10:14;;;;;;;4.30;1.75;;;;;;;17.34;52.33;100193.03;4490057;31;32993;-82
2023/06/04 03:12:42;;;;;;;;;;;;;;;17.14;52.99;100199.53;4471273;32;34228;-83
2023/06/04 03:15:09;;;;;;;;;;;;;;;16.66;53.80;100193.91;4471119;32;34235;-83
2023/06/04 03:17:37;;;;;;;;;;;;;;;16.05;56.42;100200.06;4491581;31;34016;-84
2023/06/04 03:20:06;;;;;;;;;;;;;;;16.21;55.98;100202.28;4493887;31;33535;-83
2023/06/04 03:22:35;;;;;;;;;;;;;;;17.29;52.30;100184.19;4490100;31;35017;-83
2023/06/04 03:25:03;;;;;;;;;;;;;;;18.24;49.70;100191.53;4481245;31;34816;-83
2023/06/04 03:27:31;;;;;;;;;;;;;;;18.42;49.20;100195.34;4490021;31;33204;-82
2023/06/04 03:29:59;;;;;;;;;;;;;;;18.41;49.24;100193.59;4495036;31;33266;-83
2023/06/04 03:32:28;;;;;;;;;;;;;;;18.55;48.77;100192.13;4493084;31;34780;-83
2023/06/04 03:34:55;;;;;;;;;;;;;;;18.01;49.62;100204.16;4491925;31;33719;-83
2023/06/04 03:37:23;;;;;;;;;;;;;;;18.19;49.27;100197.53;4499018;31;34811;-83
2023/06/04 03:39:50;;;;;;;5.57;2.70;;;;;;;18.93;47.94;100205.09;4495966;31;34597;-82
2023/06/04 03:42:18;;;;;;;5.85;2.55;;;;;;;20.41;45.07;100209.81;4491429;31;32269;-83
2023/06/04 03:44:46;;;;;;;5.37;2.03;;;;;;;21.37;42.08;100203.72;4490747;31;34834;-83
2023/06/04 03:47:14;;;;;;;5.57;1.50;;;;;;;20.76;42.84;100204.97;4474906;32;34279;-83
2023/06/04 03:49:42;;;;;;;5.18;1.60;;;;;;;20.51;42.87;100203.78;4485852;31;33520;-83
2023/06/04 03:52:10;;;;;;;3.62;1.40;;;;;;;19.75;44.26;100212.50;4486422;31;33700;-83
2023/06/04 03:54:37;;;;;;;5.20;1.48;;;;;;;20.21;42.50;100210.47;4495329;31;33887;-83
2023/06/04 03:57:05;;;;;;;15.63;13.05;;;;;;;20.04;43.17;100212.03;4484724;31;33902;-84
2023/06/04 03:59:33;;;;;;;9.95;5.32;;;;;;;18.79;45.31;100211.78;4490816;31;33329;-83
2023/06/04 04:02:01;;;;;;;7.20;3.85;;;;;;;18.51;46.17;100213.91;4489662;31;34179;-84
2023/06/04 04:04:29;;;;;;;8.15;3.53;;;;;;;19.01;45.46;100213.97;4490916;31;33831;-83
2023/06/04 04:06:56;;;;;;;5.75;1.92;;;;;;;18.98;45.77;100213.91;4492843;31;34302;-82
2023/06/04 04:09:24;;;;;;;3.92;1.62;;;;;;;19.07;45.32;100218.44;4473503;32;33051;-82
2023/06/04 04:11:52;;;;;;;;;;;;;;;18.02;48.12;100233.87;4484617;31;34021;-83
2023/06/04 04:14:19;;;;;;;;;;;;;;;18.14;49.09;100242.00;4497876;31;33981;-83
2023/06/04 04:16:47;;;;;;;7.40;2.55;;;;;;;18.96;47.48;100226.13;4484546;32;34009;-83
2023/06/04 04:19:15;;;;;;;6.35;2.00;;;;;;;19.74;45.78;100225.62;4477367;32;32719;-84
2023/06/04 04:21:43;;;;;;;7.00;2.08;;;;;;;19.76;45.71;100219.56;4483838;31;33994;-84
2023/06/04 04:24:10;;;;;;;5.72;2.58;;;;;;;19.87;45.67;100221.44;4486030;31;33189;-83
2023/06/04 04:26:38;;;;;;;5.53;1.98;;;;;;;20.35;44.59;100217.66;4494847;31;34705;-83
2023/06/04 04:29:08;;;;;;;5.53;2.12;;;;;;;21.65;41.18;100222.41;4488819;31;32540;-83
2023/06/04 04:31:36;;;;;;;6.25;2.53;;;;;;;19.93;44.71;100229.41;4485099;31;32864;-82
2023/06/04 04:34:07;;;;;;;5.40;2.60;;;;;;;18.97;47.82;100222.66;4497517;31;34753;-84
2023/06/04 04:36:36;;;;;;;4.93;2.25;;;;;;;18.57;50.01;100229.75;4484480;31;34128;-83
2023/06/04 04:39:04;;;;;;;4.20;1.62;;;;;;;18.73;50.02;100235.28;4488166;31;33221;-83
2023/06/04 04:41:32;;;;;;;6.95;1.95;;;;;;;18.72;49.80;100236.16;4494457;31;33787;-84
2023/06/04 04:44:04;;;;;;;6.80;1.98;;;;;;;19.16;48.48;100243.94;4497987;31;35290;-83
2023/06/04 04:46:32;;;;;;;5.85;2.40;;;;;;;21.17;41.36;100238.72;4492417;31;34746;-83
2023/06/04 04:49:00;;;;;;;4.32;1.70;;;;;;;21.52;40.51;100237.28;4484060;32;33360;-83
2023/06/04 04:51:28;;;;;;;3.37;1.50;;;;;;;22.52;37.94;100230.75;4484025;31;33635;-83
2023/06/04 04:53:57;;;;;;;4.37;1.67;;;;;;;22.58;37.58;100229.91;4485600;31;33765;-83
2023/06/04 04:56:26;;;;;;;5.32;1.80;;;;;;;22.12;39.37;100238.50;4475256;31;34724;-83
2023/06/04 04:58:54;;;;;;;4.25;1.60;;;;;;;22.14;39.80;100242.00;4487135;31;33368;-83
2023/06/04 05:01:23;;;;;;;4.97;1.52;;;;;;;22.65;38.08;100229.00;4485987;31;34776;-84
2023/06/04 05:03:51;;;;;;;4.85;1.52;;;;;;;23.01;37.19;100229.09;4470780;32;33598;-83
2023/06/04 05:06:19;;;;;;;6.80;1.77;;;;;;;22.73;38.40;100226.38;4487135;31;33767;-83
2023/06/04 05:08:47;;;;;;;3.75;1.50;;;;;;;22.26;40.03;100235.06;4489944;31;33092;-84
2023/06/04 05:11:15;;;;;;;5.62;1.80;;;;;;;22.18;40.62;100238.50;4495481;31;33707;-83
2023/06/04 05:13:43;;;;;;;6.32;1.40;;;;;;;22.32;41.29;100232.44;4497440;31;34692;-84
2023/06/04 05:16:12;;;;;;;4.75;1.67;;;;;;;23.40;39.08;100225.59;4496461;31;33953;-83
2023/06/04 05:18:44;;;;;;;4.28;1.60;;;;;;;23.27;39.81;100235.28;4482719;31;33643;-83
2023/06/04 05:21:13;;;;;;;5.90;1.60;;;;;;;22.53;41.85;100250.13;4483428;32;33494;-83
2023/06/04 05:23:42;;;;;;;4.32;1.83;;;;;;;22.65;41.64;100243.97;4470200;31;32592;-82
2023/06/04 05:26:09;;;;;;;4.65;1.60;;;;;;;22.50;41.88;100248.34;4485959;31;32092;-83
2023/06/04 05:28:38;;;;;;;3.87;1.48;;;;;;;22.99;39.88;100249.34;4488141;31;34264;-83
2023/06/04 05:31:08;;;;;;;4.07;1.70;;;;;;;23.00;40.33;100251.97;4482745;31;34251;-84
2023/06/04 05:33:36;;;;;;;5.50;1.50;;;;;;;22.77;40.31;100250.19;4476027;31;33681;-83
2023/06/04 05:36:04;;;;;;;4.22;1.42;;;;;;;23.17;39.19;100252.91;4487222;31;33560;-82
2023/06/04 05:38:32;;;;;;;4.72;1.20;;;;;;;22.71;40.49;100249.28;4469133;32;33246;-84
2023/06/04 05:41:01;;;;;;;3.33;1.08;;;;;;;22.40;40.06;100249.19;4489679;31;33911;-83
2023/06/04 05:43:30;;;;;;;4.82;1.25;;;;;;;22.83;39.04;100251.06;4497921;31;34666;-83
2023/06/04 05:45:57;;;;;;;2.50;1.12;;;;;;;23.09;37.94;100245.84;4458129;32;32636;-83
2023/06/04 05:48:25;;;;;;;3.47;1.15;;;;;;;23.00;37.41;100251.97;4494234;31;33511;-83
2023/06/04 05:50:53;;;;;;;4.60;1.20;;;;;;;23.18;36.43;100251.16;4488973;31;33689;-83
2023/06/04 05:53:21;;;;;;;4.00;1.30;;;;;;;23.61;35.28;100245.84;4465634;31;33616;-84
2023/06/04 05:55:49;;;;;;;4.93;1.30;;;;;;;23.24;35.49;100240.56;4483935;31;35676;-83
2023/06/04 05:58:17;;;;;;;2.65;1.08;;;;;;;23.56;34.47;100250.25;4485149;31;33109;-84
2023/06/04 06:00:44;;;;;;;2.95;1.12;;;;;;;22.31;36.81;100249.12;4484844;31;33633;-83
2023/06/04 06:03:16;;;;;;;10.15;1.12;;;;;;;23.07;35.32;100250.25;4488256;31;33895;-83
2023/06/04 06:05:44;;;;;;;4.12;1.52;;;;;;;22.70;36.54;100236.97;4486543;31;34580;-83
2023/06/04 06:08:12;;;;;;;4.87;1.50;;;;;;;22.49;36.92;100248.34;4474357;31;33134;-83
2023/06/04 06:10:39;;;;;;;4.15;1.30;;;;;;;22.55;35.90;100249.22;4466559;31;33941;-83
2023/06/04 06:13:07;;;;;;;5.50;1.37;;;;;;;22.86;34.87;100244.03;4498519;31;33944;-84
2023/06/04 06:15:35;;;;;;;4.05;1.02;;;;;;;23.35;33.71;100251.13;4497284;31;34242;-84
2023/06/04 06:18:03;;;;;;;4.10;1.30;;;;;;;23.60;34.96;100259.94;4483510;31;31707;-84
2023/06/04 06:20:31;;;;;;;3.03;1.25;;;;;;;23.31;33.62;100257.31;4492467;31;33613;-83
2023/06/04 06:23:06;;;;;;;2.53;1.20;;;;;;;22.80;32.60;100265.16;4478065;31;32857;-83
2023/06/04 06:25:34;;;;;;;4.85;1.25;;;;;;;22.73;34.23;100272.16;4494338;31;33633;-82
2023/06/04 06:28:02;;;;;;;4.25;1.40;;;;;;;24.12;32.02;100273.06;4486991;31;34202;-83
2023/06/04 06:30:30;;;;;;;2.42;1.10;;;;;;;23.74;33.18;100278.44;4487745;31;33977;-84
2023/06/04 06:32:58;;;;;;;3.10;1.33;;;;;;;25.35;31.16;100276.88;4488910;31;33700;-84
2023/06/04 06:35:25;;;;;;;3.60;1.30;;;;;;;24.90;32.28;100274.53;4485197;31;34239;-83
2023/06/04 06:37:53;;;;;;;5.80;1.27;;;;;;;24.90;31.65;100276.31;4492373;31;33465;-83
2023/06/04 06:40:20;;;;;;;2.80;1.00;;;;;;;25.23;30.28;100277.87;4497684;31;33701;-84
2023/06/04 06:42:50;;;;;;;5.03;1.10;;;;;;;25.10;30.89;100284.09;4486615;31;33525;-85
2023/06/04 06:45:18;;;;;;;7.70;1.35;;;;;;;25.47;30.09;100290.03;4473671;31;32116;-83
2023/06/04 06:47:46;;;;;;;4.40;1.30;;;;;;;25.23;30.72;100279.62;4472899;32;31932;-83
2023/06/04 06:50:14;;;;;;;3.12;1.20;;;;;;;25.45;29.99;100286.50;4472687;32;33514;-81
2023/06/04 06:52:41;;;;;;;4.40;1.17;;;;;;;25.43;30.37;100292.72;4484949;31;33786;-83
2023/06/04 06:55:09;;;;;;;3.72;1.12;;;;;;;25.19;30.31;100289.34;4493527;31;33809;-81
2023/06/04 06:57:37;;;;;;;5.25;1.27;;;;;;;24.65;30.33;100296.75;4474970;32;32439;-79
2023/06/04 07:00:05;;;;;;;2.37;0.82;;;;;;;24.87;30.12;100293.06;4481156;31;34701;-82
2023/06/04 07:02:33;;;;;;;3.75;1.25;;;;;;;25.21;29.77;100292.00;4495391;31;33916;-81
2023/06/04 07:05:01;;;;;;;4.28;1.35;;;;;;;26.13;29.09;100301.81;4484689;31;33292;-81
2023/06/04 07:07:29;;;;;;;4.68;1.20;;;;;;;24.90;30.13;100308.09;4495154;31;33423;-83
2023/06/04 07:09:56;;;;;;;3.53;1.17;;;;;;;25.51;29.17;100296.19;4487293;31;34542;-82
2023/06/04 07:12:24;;;;;;;3.55;1.37;;;;;;;26.64;27.65;100293.28;4499768;31;33898;-82
2023/06/04 07:14:52;;;;;;;5.00;1.37;;;;;;;26.36;28.29;100295.34;4494251;31;33313;-83
2023/06/04 07:17:20;;;;;;;3.00;1.42;;;;;;;26.15;30.31;100293.81;4484790;32;34378;-84
2023/06/04 07:19:47;;;;;;;3.25;1.20;;;;;;;25.40;30.60;100292.75;4484439;31;33810;-83
2023/06/04 07:22:17;;;;;;;4.25;1.62;;;;;;;25.57;27.31;100289.94;4497694;31;34613;-84
2023/06/04 07:24:45;;;;;;;2.83;1.20;;;;;;;27.50;25.86;100297.31;4490831;31;34496;-84
2023/06/04 07:27:13;;;;;;;;;;;;;;;27.64;25.73;100289.97;4491823;31;33316;-80
2023/06/04 07:29:42;;;;;;;;;;;;;;;25.55;30.84;100303.22;4485350;31;33732;-84
2023/06/04 07:32:10;;;;;;;;;;;;;;;24.29;31.79;100298.63;4483661;31;33873;-78
2023/06/04 07:34:37;;;;;;;;;;;;;;;23.70;32.91;100297.81;4484853;32;34084;-81
2023/06/04 07:37:05;;;;;;;;;;;;;;;23.32;32.64;100296.97;4484991;32;32759;-82
2023/06/04 07:39:32;;;;;;;;;;;;;;;25.04;29.85;100297.41;4484253;31;33980;-79
2023/06/04 07:42:00;;;;;;;;;;;;;;;24.97;29.24;100298.31;4497253;31;34803;-82
2023/06/04 07:44:27;;;;;;;;;;;;;;;25.91;28.79;100303.81;4484730;32;34051;-78
2023/06/04 07:46:54;;;;;;;;;;;;;;;24.45;30.51;100300.31;4487941;31;33039;-79
2023/06/04 07:49:21;;;;;;;;;;;;;;;26.01;29.32;100301.94;4487821;31;34697;-79
2023/06/04 07:51:49;;;;;;;3.33;1.08;;;;;;;26.93;27.83;100295.50;4484906;31;34150;-80
2023/06/04 07:54:17;;;;;;;3.85;1.30;;;;;;;27.23;27.58;100304.78;4496997;31;32659;-81
2023/06/04 07:56:44;;;;;;;2.97;1.00;;;;;;;27.73;26.20;100299.56;4491251;31;33962;-81
2023/06/04 07:59:11;;;;;;;4.00;1.30;;;;;;;27.17;27.76;100302.22;4494112;31;33568;-81
2023/06/04 08:01:39;;;;;;;;;;;;;;;28.35;25.09;100309.09;4476103;31;33542;-81
2023/06/04 08:04:07;;;;;;;;;;;;;;;26.98;26.05;100298.09;4497314;31;34437;-78
2023/06/04 08:06:35;;;;;;;;;;;;;;;26.87;25.21;100304.47;4469891;31;31559;-79
2023/06/04 08:09:02;;;;;;;;;;;;;;;27.57;26.09;100306.94;4488813;31;34032;-79
2023/06/04 08:11:30;;;;;;;;;;;;;;;27.92;24.48;100310.78;4486154;31;34136;-82
2023/06/04 08:13:57;;;;;;;;;;;;;;;26.97;29.43;100313.19;4487535;31;34091;-82
2023/06/04 08:16:24;;;;;;;;;;;;;;;24.76;28.26;100310.81;4486140;31;34272;-79
2023/06/04 08:19:07;;;;;;;;;;;;;;;26.80;25.93;100305.44;4491426;31;34153;-78
2023/06/04 08:21:44;;;;;;;;;;;;;;;25.23;28.72;100311.47;4481241;31;34353;-80
2023/06/04 08:24:28;;;;;;;;;;;;;;;26.36;28.72;100321.91;4488185;31;34512;-82
2023/06/04 08:27:11;;;;;;;;;;;;;;;25.58;27.73;100310.28;4469902;31;33562;-80
2023/06/04 08:29:50;;;;;;;;;;;;;;;24.84;30.29;100308.09;4472003;32;33803;-78
2023/06/04 08:32:37;;;;;;;;;;;;;;;26.45;27.63;100320.03;4474959;31;32511;-78
2023/06/04 08:35:16;;;;;;;;;;;;;;;28.12;25.44;100304.22;4477436;31;34607;-80
2023/06/04 08:37:44;;;;;;;;;;;;;;;27.03;27.82;100313.09;4469148;31;32602;-78
2023/06/04 08:40:11;;;;;;;;;;;;;;;23.95;30.31;100319.88;4488161;31;34005;-79
2023/06/04 08:42:42;;;;;;;;;;;;;;;23.92;31.34;100318.13;4475655;31;35024;-83
2023/06/04 08:45:11;;;;;;;;;;;;;;;23.35;31.07;100315.47;4490017;31;34999;-82
2023/06/04 08:47:40;;;;;;;;;;;;;;;23.92;31.51;100319.88;4481708;31;33206;-82
2023/06/04 08:50:08;;;;;;;;;;;;;;;23.82;32.17;100319.03;4491545;31;34533;-80
2023/06/04 08:52:35;;;;;;;;;;;;;;;23.45;31.78;100313.72;4474493;31;32574;-83
2023/06/04 08:55:03;;;;;;;;;;;;;;;24.24;30.91;100316.28;4496878;31;34534;-84
2023/06/04 08:57:30;;;;;;;;;;;;;;;24.33;31.25;100313.59;4491257;31;32721;-83
2023/06/04 08:59:58;;;;;;;;;;;;;;;26.17;29.53;100321.25;4493689;31;34007;-81
2023/06/04 09:02:28;;;;;;;;;;;;;;;25.89;30.29;100313.53;4489250;31;34765;-82
2023/06/04 09:04:56;;;;;;;;;;;;;;;25.45;31.23;100312.16;4490189;31;34315;-83
2023/06/04 09:07:24;;;;;;;;;;;;;;;25.88;31.29;100317.06;4479726;31;33953;-78
2023/06/04 09:09:51;;;;;;;;;;;;;;;25.30;32.41;100314.06;4473550;31;34020;-83
2023/06/04 09:12:40;;;;;;;;;;;;;;;23.63;32.32;100315.47;4477311;31;34577;-82
2023/06/04 09:15:07;;;;;;;;;;;;;;;23.85;33.22;100318.13;4496431;31;33703;-83
2023/06/04 09:17:35;;;;;;;;;;;;;;;22.77;34.52;100310.94;4488754;31;33830;-82
2023/06/04 09:20:03;;;;;;;;;;;;;;;22.96;34.24;100316.25;4488423;31;34987;-83
2023/06/04 09:22:34;;;;;;;;;;;;;;;22.36;35.67;100322.19;4487777;31;35504;-83
2023/06/04 09:25:03;;;;;;;;;;;;;;;23.66;32.62;100315.47;4470192;31;33103;-83
2023/06/04 09:27:37;;;;;;;;;;;;;;;23.39;33.65;100318.97;4461446;32;32788;-83
2023/06/04 09:30:04;;;;;;;;;;;;;;;23.07;34.53;100321.59;4463869;31;33028;-83
2023/06/04 09:32:32;;;;;;;;;;;;;;;23.61;35.37;100322.53;4483586;32;34339;-83
2023/06/04 09:35:10;;;;;;;;;;;;;;;24.32;32.50;100319.81;4475111;31;33860;-84
2023/06/04 09:37:37;;;;;;;;;;;;;;;24.97;31.86;100322.19;4468613;32;32811;-83
2023/06/04 09:40:06;;;;;;;;;;;;;;;23.25;36.10;100318.97;4484826;31;33941;-84
2023/06/04 09:42:46;;;;;;;;;;;;;;;22.84;35.00;100322.37;4452683;31;32984;-84
2023/06/04 09:45:13;;;;;;;;;;;;;;;23.27;35.98;100319.84;4488533;31;34322;-84
2023/06/04 09:47:41;;;;;;;;;;;;;;;23.22;35.04;100316.34;4472892;32;33685;-83
2023/06/04 09:50:10;;;;;;;;;;;;;;;23.34;36.21;100323.41;4492808;31;33950;-82
2023/06/04 09:52:39;;;;;;;;;;;;;;;22.90;37.77;100319.75;4476394;31;34786;-83
2023/06/04 09:55:20;;;;;;;;;;;;;;;22.89;36.27;100322.37;4461372;32;34100;-81
2023/06/04 09:57:49;;;;;;;;;;;;;;;23.02;36.99;100328.59;4477296;31;33096;-82
2023/06/04 10:00:17;;;;;;;;;;;;;;;22.19;39.43;100339.66;4489680;31;33900;-83
2023/06/04 10:02:45;;;;;;;;;;;;;;;22.97;39.04;100332.09;4484026;31;33879;-83
2023/06/04 10:05:14;;;;;;;;;;;;;;;23.06;40.71;100335.69;4473010;32;34852;-82
2023/06/04 10:07:42;;;;;;;;;;;;;;;22.27;40.71;100337.09;4493045;31;33854;-82
2023/06/04 10:10:16;;;;;;;;;;;;;;;22.41;39.59;100339.78;4472198;32;33634;-82
2023/06/04 10:12:45;;;;;;;;;;;;;;;22.76;41.04;100339.97;4488522;31;35068;-82
2023/06/04 10:15:13;;;;;;;;;;;;;;;22.30;41.24;100347.69;4477408;32;34073;-81
2023/06/04 10:17:40;;;;;;;;;;;;;;;22.23;39.63;100340.56;4485752;31;33846;-82
2023/06/04 10:20:09;;;;;;;;;;;;;;;22.91;38.23;100332.09;4479514;31;33951;-82
2023/06/04 10:22:37;;;;;;;;;;;;;;;22.89;39.01;100339.13;4494779;31;34628;-83
2023/06/04 10:25:04;;;;;;;;;;;;;;;23.41;37.89;100330.47;4481132;31;33670;-82
2023/06/04 10:27:32;;;;;;;;;;;;;;;23.01;37.08;100338.28;4494461;31;33364;-82
2023/06/04 10:29:59;;;;;;;;;;;;;;;24.05;36.82;100326.94;4487078;31;34510;-82
2023/06/04 10:32:27;;;;;;;;;;;;;;;23.70;38.45;100327.81;4485574;32;34952;-82
2023/06/04 10:34:55;;;;;;;;;;;;;;;23.35;38.54;100326.06;4471471;31;35501;-81
2023/06/04 10:37:23;;;;;;;;;;;;;;;23.17;35.01;100328.66;4475171;31;33010;-81
2023/06/04 10:39:51;;;;;;;;;;;;;;;23.66;34.72;100333.09;4485644;31;34041;-81
2023/06/04 10:42:18;;;;;;;;;;;;;;;23.67;35.33;100333.09;4485557;32;34409;-82
2023/06/04 10:44:46;;;;;;;;;;;;;;;24.14;33.60;100337.50;4490740;31;34699;-81
2023/06/04 10:47:21;;;;;;;;;;;;;;;24.72;31.91;100332.91;4474803;31;32588;-81
2023/06/04 10:49:50;;;;;;;;;;;;;;;26.06;29.71;100324.03;4486993;31;34037;-82
2023/06/04 10:52:17;;;;;;;;;;;;;;;26.61;27.49;100317.22;4485192;31;34174;-82
2023/06/04 10:54:45;;;;;;;;;;;;;;;25.42;27.48;100333.38;4493354;31;34292;-84
2023/06/04 10:57:13;;;;;;;;;;;;;;;24.46;29.90;100328.56;4488282;31;33334;-83
2023/06/04 10:59:40;;;;;;;;;;;;;;;24.43;30.56;100328.56;4490748;31;33828;-83
2023/06/04 11:02:08;;;;;;;;;;;;;;;24.62;31.22;100328.53;4479897;31;33624;-82
2023/06/04 11:04:40;;;;;;;;;;;;;;;26.46;29.06;100332.44;4473311;31;33576;-86
2023/06/04 11:07:10;;;;;;;;;;;;;;;28.04;27.29;100323.88;4460956;31;31690;-86
2023/06/04 11:09:47;;;;;;;;;;;;;;;27.74;28.19;100324.38;4473280;31;36381;-85
2023/06/04 11:12:14;;;;;;;;;;;;;;;27.71;28.01;100327.12;4482407;31;34163;-84
2023/06/04 11:14:55;;;;;;;;;;;;;;;27.13;29.26;100319.13;4477167;32;34189;-83
2023/06/04 11:17:22;;;;;;;;;;;;;;;28.34;28.17;100324.19;4485094;31;33573;-85
2023/06/04 11:19:55;;;;;;;;;;;;;;;28.78;26.64;100325.09;4480694;32;34498;-83
2023/06/04 11:22:23;;;;;;;;;;;;;;;28.26;28.23;100323.47;4483212;31;34518;-84
2023/06/04 11:24:55;;;;;;;;;;;;;;;29.30;25.60;100312.34;4472076;31;32722;-86
2023/06/04 11:27:30;;;;;;;;;;;;;;;29.68;25.62;100317.66;4491263;31;33991;-87
2023/06/04 11:30:06;;;;;;;;;;;;;;;29.65;25.95;100317.72;4485970;31;34315;-85
2023/06/04 11:32:33;;;;;;;;;;;;;;;29.47;25.21;100311.94;4482035;32;34816;-85
2023/06/04 11:35:02;;;;;;;;;;;;;;;29.31;26.08;100313.25;4477000;31;33841;-85
2023/06/04 11:37:32;;;;;;;;;;;;;;;29.95;24.87;100314.28;4463386;31;31878;-84
2023/06/04 11:40:00;;;;;;;;;;;;;;;29.15;26.03;100308.28;4489364;31;34188;-86
2023/06/04 11:42:28;;;;;;;;;;;;;;;29.18;26.98;100315.31;4489422;31;34646;-85
2023/06/04 11:45:01;;;;;;;;;;;;;;;28.72;27.56;100319.88;4476368;31;33781;-87
2023/06/04 11:47:29;;;;;;;;;;;;;;;28.59;28.22;100316.59;4490229;31;33105;-85
2023/06/04 11:49:56;;;;;;;;;;;;;;;29.38;26.38;100322.84;4471726;32;34197;-84
2023/06/04 11:52:24;;;;;;;;;;;;;;;29.46;26.32;100323.53;4474393;31;34035;-85
2023/06/04 11:54:51;;;;;;;;;;;;;;;29.31;26.47;100318.59;4494178;31;34210;-85
2023/06/04 11:57:19;;;;;;;;;;;;;;;28.76;27.55;100324.25;4477044;32;33958;-83
2023/06/04 11:59:46;;;;;;;;;;;;;;;30.01;24.76;100320.38;4474016;31;33659;-85
2023/06/04 12:02:13;;;;;;;;;;;;;;;29.99;24.15;100323.97;4488224;31;33925;-86
2023/06/04 12:04:41;;;;;;;;;;;;;;;29.85;26.02;100322.59;4493422;31;33974;-85
2023/06/04 12:07:09;;;;;;;;;;;;;;;29.84;26.12;100324.38;4490698;31;34009;-82
2023/06/04 12:09:39;;;;;;;;;;;;;;;29.56;26.99;100322.37;4485832;31;34080;-84
2023/06/04 12:12:08;;;;;;;4.28;1.37;;;;;;;29.23;27.54;100317.91;4473948;31;34173;-85
2023/06/04 12:14:35;;;;;;;5.87;1.23;;;;;;;28.69;28.65;100319.94;4488944;31;34495;-83
2023/06/04 12:17:06;;;;;;;;;;;;;;;28.55;28.32;100316.69;4462699;31;33775;-82
2023/06/04 12:19:48;;;;;;;;;;;;;;;28.52;28.63;100322.09;4475394;31;35040;-86